Suederoog — ZDHC8 — position and weather

sailwx.info

Track history (hours):
 
Tides and Currents Weather Stations Pressure Air Temp Water Temp Dewpoint Dewpoint Depression Visibility Wind Speed Wind Dir Waves Ship Positions

Suederoog

Last reported at 2015-May-21 19:19 UTC. Time now 2015-May-22 13:04 UTC.
Position N 59°42' E 023°51'.

Length 161 m; draft 9 m.

Type: Cargo ship. MMSI: 236300000.

Date/timePositionNaut miles runAvg speedWind from/ knotsBaromVisibWave heightAir tempDewpointWater temp
2015-May-21 19:19N 59°42' E 023°51'1316.9
2015-May-21 18:32N 59°46' E 024°16'6516.2
2015-May-21 14:33N 60°06' E 026°18'1514.7
2015-May-21 13:33N 60°19' E 026°35'1211.9
2015-May-21 12:33N 60°25' E 026°55'0 0.1
2015-May-21 11:32N 60°25' E 026°55'0 0.0
2015-May-21 10:32N 60°25' E 026°55'0 0.0
2015-May-21 09:32N 60°25' E 026°55'0 0.0
2015-May-21 08:32N 60°25' E 026°55'0 0.0
2015-May-21 07:32N 60°25' E 026°55'0 0.0
2015-May-21 06:32N 60°25' E 026°55'0 0.0
2015-May-21 05:32N 60°25' E 026°55'0 0.0
2015-May-21 04:32N 60°25' E 026°55'0 0.0
2015-May-21 03:33N 60°25' E 026°55'0 0.0
2015-May-21 02:31N 60°25' E 026°55'0 0.0
2015-May-21 01:31N 60°25' E 026°55'0 0.0
2015-May-21 00:31N 60°25' E 026°55'0 0.0
2015-May-20 23:32N 60°25' E 026°55'0 0.0
2015-May-20 22:31N 60°25' E 026°55'0 0.0
2015-May-20 21:31N 60°25' E 026°55'0 0.0
2015-May-20 20:33N 60°25' E 026°55'0 0.0
2015-May-20 19:33N 60°25' E 026°55'0 0.0
2015-May-20 18:31N 60°25' E 026°55'0 0.0
2015-May-20 17:33N 60°25' E 026°55'0 0.0
2015-May-20 16:33N 60°25' E 026°55'0 0.0
2015-May-20 15:33N 60°25' E 026°55'0 0.0
2015-May-20 14:33N 60°25' E 026°55'0 0.0
2015-May-20 13:33N 60°25' E 026°55'0 0.0
2015-May-20 12:33N 60°25' E 026°55'0 0.0
2015-May-20 11:33N 60°25' E 026°55'0 0.0
2015-May-20 10:33N 60°25' E 026°55'1 1.0
2015-May-20 09:34N 60°25' E 026°54'1716.7
2015-May-20 08:33N 60°15' E 026°26'5 3.2
2015-May-20 07:06N 60°11' E 026°20'2 1.0
2015-May-20 05:32N 60°10' E 026°23'1111.5
2015-May-20 04:33N 60°03' E 026°40'7910.6
2015-May-19 21:08N 60°02' E 029°18'1710.7
2015-May-19 19:33N 59°57' E 029°51'1110.8
2015-May-19 18:33N 59°53' E 030°10'2 1.5
2015-May-19 17:33N 59°53' E 030°13'0 0.0
2015-May-19 16:33N 59°53' E 030°13'0 0.0
2015-May-19 15:33N 59°53' E 030°13'0 0.0
2015-May-19 14:33N 59°53' E 030°13'0 0.0
2015-May-19 13:30N 59°53' E 030°13'0 0.0
2015-May-19 12:33N 59°53' E 030°13'0 0.0
2015-May-19 11:33N 59°53' E 030°13'0 0.0
2015-May-19 10:32N 59°53' E 030°13'0 0.0
2015-May-19 09:32N 59°53' E 030°13'0 0.0
2015-May-19 08:31N 59°53' E 030°13'1 1.3
2015-May-19 07:33N 59°52' E 030°12'0 0.0
2015-May-19 06:31N 59°52' E 030°12'0 0.0
2015-May-19 05:31N 59°52' E 030°12'0 0.0
2015-May-19 04:32N 59°52' E 030°12'0 0.0
2015-May-19 03:32N 59°52' E 030°12'0 0.0
2015-May-19 02:32N 59°52' E 030°12'0 0.0
2015-May-19 01:32N 59°52' E 030°12'0 0.0
2015-May-19 00:32N 59°52' E 030°12'0 0.0
2015-May-18 23:32N 59°52' E 030°12'0 0.0
2015-May-18 22:32N 59°52' E 030°12'0 0.0
2015-May-18 21:31N 59°52' E 030°12'0 0.0
2015-May-18 20:31N 59°52' E 030°12'0 0.0
2015-May-18 19:31N 59°52' E 030°12'0 0.0
2015-May-18 18:29N 59°52' E 030°12'0 0.0
2015-May-18 17:32N 59°52' E 030°12'0 0.0
2015-May-18 16:32N 59°52' E 030°12'0 0.0
2015-May-18 15:30N 59°52' E 030°12'2 2.1
2015-May-18 14:33N 59°53' E 030°09'9 9.1
2015-May-18 13:33N 59°57' E 029°52'7610.3
2015-May-18 06:09N 60°03' E 027°20'1710.9
2015-May-18 04:34N 59°59' E 026°47'1111.4
2015-May-18 03:33N 59°58' E 026°24'5711.4
2015-May-17 22:34N 59°44' E 024°34'1111.5
2015-May-17 21:33N 59°41' E 024°12'1211.5
2015-May-17 20:33N 59°37' E 023°51'1211.7
2015-May-17 19:33N 59°33' E 023°28'35917.0
2015-May-16 22:24N 55°34' E 015°11'1517.7
2015-May-16 21:33N 55°27' E 014°48'1717.1
2015-May-16 20:33N 55°15' E 014°26'1817.4
2015-May-16 19:33N 55°01' E 014°07'7116.8
2015-May-16 15:18N 54°31' E 012°15'1115.2
2015-May-16 14:33N 54°25' E 011°58'1717.4
2015-May-16 13:33N 54°29' E 011°30'1716.9
2015-May-16 12:33N 54°35' E 011°02'2017.7
2015-May-16 11:26N 54°32' E 010°29'1112.1
2015-May-16 10:34N 54°26' E 010°14'5 4.9
2015-May-16 09:33N 54°22' E 010°08'6 5.8
2015-May-16 08:33N 54°21' E 009°59'6 6.1
2015-May-16 07:33N 54°22' E 009°48'8 7.6
2015-May-16 06:33N 54°17' E 009°38'7 7.5
2015-May-16 05:33N 54°11' E 009°30'7 6.7
2015-May-16 04:31N 54°08' E 009°20'5 5.5
2015-May-16 03:33N 54°02' E 009°18'3 2.8
2015-May-16 02:33N 53°60' E 009°17'7 7.5
2015-May-16 01:33N 53°54' E 009°09'1 1.1
2015-May-16 00:33N 53°53' E 009°10'1111.4
2015-May-15 23:33N 53°45' E 009°24'1313.2
2015-May-15 22:33N 53°35' E 009°38'9 9.3
2015-May-15 21:33N 53°33' E 009°53'2 2.3
2015-May-15 20:32N 53°32' E 009°57'0 0.0
2015-May-15 19:33N 53°32' E 009°57'0 0.0
2015-May-15 18:33N 53°32' E 009°57'0 0.0
2015-May-15 17:28N 53°32' E 009°57'0 0.0
2015-May-15 16:28N 53°32' E 009°57'0 0.0
2015-May-15 15:29N 53°32' E 009°57'0 0.0
2015-May-15 14:32N 53°32' E 009°57'0 0.0
2015-May-15 13:26N 53°32' E 009°57'0 0.0
2015-May-15 12:29N 53°32' E 009°57'0 0.0
2015-May-15 11:32N 53°32' E 009°57'0 0.0
2015-May-15 10:32N 53°32' E 009°57'0 0.0
2015-May-15 09:29N 53°32' E 009°57'0 0.0
2015-May-15 08:32N 53°32' E 009°57'0 0.0
2015-May-15 07:30N 53°32' E 009°57'0 0.0
2015-May-15 06:32N 53°32' E 009°57'0 0.0
2015-May-15 05:17N 53°32' E 009°57'0 0.0
2015-May-15 04:33N 53°32' E 009°57'1 1.2
2015-May-15 03:27N 53°32' E 009°55'0 0.0
2015-May-15 02:29N 53°32' E 009°55'0 0.0
2015-May-15 01:28N 53°32' E 009°55'0 0.0
2015-May-15 00:28N 53°32' E 009°55'0 0.0
2015-May-14 23:28N 53°32' E 009°55'0 0.0
2015-May-14 22:28N 53°32' E 009°55'0 0.0
2015-May-14 21:31N 53°32' E 009°55'0 0.0
2015-May-14 20:31N 53°32' E 009°55'0 0.0
2015-May-14 19:31N 53°32' E 009°55'0 0.0
2015-May-14 18:33N 53°32' E 009°55'0 0.0
2015-May-14 17:33N 53°32' E 009°55'0 0.0
2015-May-14 16:33N 53°32' E 009°55'0 0.0
2015-May-14 15:33N 53°32' E 009°55'0 0.0
2015-May-14 14:27N 53°32' E 009°55'0 0.0
2015-May-14 13:33N 53°32' E 009°55'0 0.0
2015-May-14 12:33N 53°32' E 009°55'0 0.0
2015-May-14 11:33N 53°32' E 009°55'0 0.0
2015-May-14 10:33N 53°32' E 009°55'1 0.7
2015-May-14 09:33N 53°32' E 009°54'1211.5
2015-May-14 08:33N 53°36' E 009°36'1717.4
2015-May-14 07:33N 53°51' E 009°20'7 7.2
2015-May-14 06:32N 53°54' E 009°09'1 0.9
2015-May-14 05:34N 53°54' E 009°10'1 0.8
2015-May-14 04:34N 53°55' E 009°11'6 5.6
2015-May-14 03:34N 53°59' E 009°17'6 6.0
2015-May-14 02:33N 54°05' E 009°19'6 6.4
2015-May-14 01:33N 54°10' E 009°26'6 5.8
2015-May-14 00:32N 54°13' E 009°35'6 6.3
2015-May-13 23:33N 54°18' E 009°41'6 6.1
2015-May-13 22:33N 54°22' E 009°49'3 2.8
2015-May-13 21:33N 54°21' E 009°54'4 3.9
2015-May-13 20:33N 54°21' E 010°00'5 4.6
2015-May-13 19:33N 54°22' E 010°08'2 2.2
2015-May-13 18:34N 54°23' E 010°12'1111.2
2015-May-13 17:33N 54°32' E 010°24'1111.2
2015-May-13 16:33N 54°35' E 010°43'1010.5
2015-May-13 15:33N 54°36' E 011°01'9 9.4
2015-May-13 14:33N 54°34' E 011°17'10 9.8
2015-May-13 13:33N 54°30' E 011°32'1312.7
2015-May-13 12:33N 54°26' E 011°53'1313.1
2015-May-13 11:33N 54°31' E 012°14'1211.8
2015-May-13 10:33N 54°40' E 012°27'1110.8
2015-May-13 09:33N 54°46' E 012°42'1110.9
2015-May-13 08:33N 54°50' E 012°60'2110.6
2015-May-13 06:33N 54°58' E 013°35'1110.6
2015-May-13 05:33N 55°02' E 013°52'1010.3
2015-May-13 04:33N 55°07' E 014°07'1110.9
2015-May-13 03:31N 55°16' E 014°19'1111.0
2015-May-13 02:28N 55°25' E 014°33'1011.2
2015-May-13 01:33N 55°30' E 014°47'1111.0
2015-May-13 00:33N 55°36' E 015°04'1111.2
2015-May-12 23:33N 55°42' E 015°21'1111.3
2015-May-12 22:33N 55°47' E 015°39'32414.5
2015-May-12 00:11N 59°33' E 022°52'1516.9
2015-May-11 23:16N 59°38' E 023°21'1217.0
2015-May-11 22:33N 59°41' E 023°45'1717.3
2015-May-11 21:34N 59°46' E 024°17'1717.2
2015-May-11 20:34N 59°50' E 024°50'  
Track history (hours):
 
Tides and Currents Weather Stations Pressure Air Temp Water Temp Dewpoint Dewpoint Depression Visibility Wind Speed Wind Dir Waves Ship Positions

Suederoog

Last reported at 2015-May-21 19:19 UTC. Time now 2015-May-22 13:04 UTC.
Position N 59°42' E 023°51'.

Length 161 m; draft 9 m.

Type: Cargo ship. MMSI: 236300000.

Date/timePositionNaut miles runAvg speedWind from/ knotsBaromVisibWave heightAir tempDewpointWater temp
2015-May-21 19:19N 59°42' E 023°51'1316.9
2015-May-21 18:32N 59°46' E 024°16'6516.2
2015-May-21 14:33N 60°06' E 026°18'1514.7
2015-May-21 13:33N 60°19' E 026°35'1211.9
2015-May-21 12:33N 60°25' E 026°55'0 0.1
2015-May-21 11:32N 60°25' E 026°55'0 0.0
2015-May-21 10:32N 60°25' E 026°55'0 0.0
2015-May-21 09:32N 60°25' E 026°55'0 0.0
2015-May-21 08:32N 60°25' E 026°55'0 0.0
2015-May-21 07:32N 60°25' E 026°55'0 0.0
2015-May-21 06:32N 60°25' E 026°55'0 0.0
2015-May-21 05:32N 60°25' E 026°55'0 0.0
2015-May-21 04:32N 60°25' E 026°55'0 0.0
2015-May-21 03:33N 60°25' E 026°55'0 0.0
2015-May-21 02:31N 60°25' E 026°55'0 0.0
2015-May-21 01:31N 60°25' E 026°55'0 0.0
2015-May-21 00:31N 60°25' E 026°55'0 0.0
2015-May-20 23:32N 60°25' E 026°55'0 0.0
2015-May-20 22:31N 60°25' E 026°55'0 0.0
2015-May-20 21:31N 60°25' E 026°55'0 0.0
2015-May-20 20:33N 60°25' E 026°55'0 0.0
2015-May-20 19:33N 60°25' E 026°55'0 0.0
2015-May-20 18:31N 60°25' E 026°55'0 0.0
2015-May-20 17:33N 60°25' E 026°55'0 0.0
2015-May-20 16:33N 60°25' E 026°55'0 0.0
2015-May-20 15:33N 60°25' E 026°55'0 0.0
2015-May-20 14:33N 60°25' E 026°55'0 0.0
2015-May-20 13:33N 60°25' E 026°55'0 0.0
2015-May-20 12:33N 60°25' E 026°55'0 0.0
2015-May-20 11:33N 60°25' E 026°55'0 0.0
2015-May-20 10:33N 60°25' E 026°55'1 1.0
2015-May-20 09:34N 60°25' E 026°54'1716.7
2015-May-20 08:33N 60°15' E 026°26'5 3.2
2015-May-20 07:06N 60°11' E 026°20'2 1.0
2015-May-20 05:32N 60°10' E 026°23'1111.5
2015-May-20 04:33N 60°03' E 026°40'7910.6
2015-May-19 21:08N 60°02' E 029°18'1710.7
2015-May-19 19:33N 59°57' E 029°51'1110.8
2015-May-19 18:33N 59°53' E 030°10'2 1.5
2015-May-19 17:33N 59°53' E 030°13'0 0.0
2015-May-19 16:33N 59°53' E 030°13'0 0.0
2015-May-19 15:33N 59°53' E 030°13'0 0.0
2015-May-19 14:33N 59°53' E 030°13'0 0.0
2015-May-19 13:30N 59°53' E 030°13'0 0.0
2015-May-19 12:33N 59°53' E 030°13'0 0.0
2015-May-19 11:33N 59°53' E 030°13'0 0.0
2015-May-19 10:32N 59°53' E 030°13'0 0.0
2015-May-19 09:32N 59°53' E 030°13'0 0.0
2015-May-19 08:31N 59°53' E 030°13'1 1.3
2015-May-19 07:33N 59°52' E 030°12'0 0.0
2015-May-19 06:31N 59°52' E 030°12'0 0.0
2015-May-19 05:31N 59°52' E 030°12'0 0.0
2015-May-19 04:32N 59°52' E 030°12'0 0.0
2015-May-19 03:32N 59°52' E 030°12'0 0.0
2015-May-19 02:32N 59°52' E 030°12'0 0.0
2015-May-19 01:32N 59°52' E 030°12'0 0.0
2015-May-19 00:32N 59°52' E 030°12'0 0.0
2015-May-18 23:32N 59°52' E 030°12'0 0.0
2015-May-18 22:32N 59°52' E 030°12'0 0.0
2015-May-18 21:31N 59°52' E 030°12'0 0.0
2015-May-18 20:31N 59°52' E 030°12'0 0.0
2015-May-18 19:31N 59°52' E 030°12'0 0.0
2015-May-18 18:29N 59°52' E 030°12'0 0.0
2015-May-18 17:32N 59°52' E 030°12'0 0.0
2015-May-18 16:32N 59°52' E 030°12'0 0.0
2015-May-18 15:30N 59°52' E 030°12'2 2.1
2015-May-18 14:33N 59°53' E 030°09'9 9.1
2015-May-18 13:33N 59°57' E 029°52'7610.3
2015-May-18 06:09N 60°03' E 027°20'1710.9
2015-May-18 04:34N 59°59' E 026°47'1111.4
2015-May-18 03:33N 59°58' E 026°24'5711.4
2015-May-17 22:34N 59°44' E 024°34'1111.5
2015-May-17 21:33N 59°41' E 024°12'1211.5
2015-May-17 20:33N 59°37' E 023°51'1211.7
2015-May-17 19:33N 59°33' E 023°28'35917.0
2015-May-16 22:24N 55°34' E 015°11'1517.7
2015-May-16 21:33N 55°27' E 014°48'1717.1
2015-May-16 20:33N 55°15' E 014°26'1817.4
2015-May-16 19:33N 55°01' E 014°07'7116.8
2015-May-16 15:18N 54°31' E 012°15'1115.2
2015-May-16 14:33N 54°25' E 011°58'1717.4
2015-May-16 13:33N 54°29' E 011°30'1716.9
2015-May-16 12:33N 54°35' E 011°02'2017.7
2015-May-16 11:26N 54°32' E 010°29'1112.1
2015-May-16 10:34N 54°26' E 010°14'5 4.9
2015-May-16 09:33N 54°22' E 010°08'6 5.8
2015-May-16 08:33N 54°21' E 009°59'6 6.1
2015-May-16 07:33N 54°22' E 009°48'8 7.6
2015-May-16 06:33N 54°17' E 009°38'7 7.5
2015-May-16 05:33N 54°11' E 009°30'7 6.7
2015-May-16 04:31N 54°08' E 009°20'5 5.5
2015-May-16 03:33N 54°02' E 009°18'3 2.8
2015-May-16 02:33N 53°60' E 009°17'7 7.5
2015-May-16 01:33N 53°54' E 009°09'1 1.1
2015-May-16 00:33N 53°53' E 009°10'1111.4
2015-May-15 23:33N 53°45' E 009°24'1313.2
2015-May-15 22:33N 53°35' E 009°38'9 9.3
2015-May-15 21:33N 53°33' E 009°53'2 2.3
2015-May-15 20:32N 53°32' E 009°57'0 0.0
2015-May-15 19:33N 53°32' E 009°57'0 0.0
2015-May-15 18:33N 53°32' E 009°57'0 0.0
2015-May-15 17:28N 53°32' E 009°57'0 0.0
2015-May-15 16:28N 53°32' E 009°57'0 0.0
2015-May-15 15:29N 53°32' E 009°57'0 0.0
2015-May-15 14:32N 53°32' E 009°57'0 0.0
2015-May-15 13:26N 53°32' E 009°57'0 0.0
2015-May-15 12:29N 53°32' E 009°57'0 0.0
2015-May-15 11:32N 53°32' E 009°57'0 0.0
2015-May-15 10:32N 53°32' E 009°57'0 0.0
2015-May-15 09:29N 53°32' E 009°57'0 0.0
2015-May-15 08:32N 53°32' E 009°57'0 0.0
2015-May-15 07:30N 53°32' E 009°57'0 0.0
2015-May-15 06:32N 53°32' E 009°57'0 0.0
2015-May-15 05:17N 53°32' E 009°57'0 0.0
2015-May-15 04:33N 53°32' E 009°57'1 1.2
2015-May-15 03:27N 53°32' E 009°55'0 0.0
2015-May-15 02:29N 53°32' E 009°55'0 0.0
2015-May-15 01:28N 53°32' E 009°55'0 0.0
2015-May-15 00:28N 53°32' E 009°55'0 0.0
2015-May-14 23:28N 53°32' E 009°55'0 0.0
2015-May-14 22:28N 53°32' E 009°55'0 0.0
2015-May-14 21:31N 53°32' E 009°55'0 0.0
2015-May-14 20:31N 53°32' E 009°55'0 0.0
2015-May-14 19:31N 53°32' E 009°55'0 0.0
2015-May-14 18:33N 53°32' E 009°55'0 0.0
2015-May-14 17:33N 53°32' E 009°55'0 0.0
2015-May-14 16:33N 53°32' E 009°55'0 0.0
2015-May-14 15:33N 53°32' E 009°55'0 0.0
2015-May-14 14:27N 53°32' E 009°55'0 0.0
2015-May-14 13:33N 53°32' E 009°55'0 0.0
2015-May-14 12:33N 53°32' E 009°55'0 0.0
2015-May-14 11:33N 53°32' E 009°55'0 0.0
2015-May-14 10:33N 53°32' E 009°55'1 0.7
2015-May-14 09:33N 53°32' E 009°54'1211.5
2015-May-14 08:33N 53°36' E 009°36'1717.4
2015-May-14 07:33N 53°51' E 009°20'7 7.2
2015-May-14 06:32N 53°54' E 009°09'1 0.9
2015-May-14 05:34N 53°54' E 009°10'1 0.8
2015-May-14 04:34N 53°55' E 009°11'6 5.6
2015-May-14 03:34N 53°59' E 009°17'6 6.0
2015-May-14 02:33N 54°05' E 009°19'6 6.4
2015-May-14 01:33N 54°10' E 009°26'6 5.8
2015-May-14 00:32N 54°13' E 009°35'6 6.3
2015-May-13 23:33N 54°18' E 009°41'6 6.1
2015-May-13 22:33N 54°22' E 009°49'3 2.8
2015-May-13 21:33N 54°21' E 009°54'4 3.9
2015-May-13 20:33N 54°21' E 010°00'5 4.6
2015-May-13 19:33N 54°22' E 010°08'2 2.2
2015-May-13 18:34N 54°23' E 010°12'1111.2
2015-May-13 17:33N 54°32' E 010°24'1111.2
2015-May-13 16:33N 54°35' E 010°43'1010.5
2015-May-13 15:33N 54°36' E 011°01'9 9.4
2015-May-13 14:33N 54°34' E 011°17'10 9.8
2015-May-13 13:33N 54°30' E 011°32'1312.7
2015-May-13 12:33N 54°26' E 011°53'1313.1
2015-May-13 11:33N 54°31' E 012°14'1211.8
2015-May-13 10:33N 54°40' E 012°27'1110.8
2015-May-13 09:33N 54°46' E 012°42'1110.9
2015-May-13 08:33N 54°50' E 012°60'2110.6
2015-May-13 06:33N 54°58' E 013°35'1110.6
2015-May-13 05:33N 55°02' E 013°52'1010.3
2015-May-13 04:33N 55°07' E 014°07'1110.9
2015-May-13 03:31N 55°16' E 014°19'1111.0
2015-May-13 02:28N 55°25' E 014°33'1011.2
2015-May-13 01:33N 55°30' E 014°47'1111.0
2015-May-13 00:33N 55°36' E 015°04'1111.2
2015-May-12 23:33N 55°42' E 015°21'1111.3
2015-May-12 22:33N 55°47' E 015°39'32414.5
2015-May-12 00:11N 59°33' E 022°52'1516.9
2015-May-11 23:16N 59°38' E 023°21'1217.0
2015-May-11 22:33N 59°41' E 023°45'1717.3
2015-May-11 21:34N 59°46' E 024°17'1717.2
2015-May-11 20:34N 59°50' E 024°50'  

Dump ship's entire track history